sensor_id;sensor_type;location;lat;lon;timestamp;pressure;altitude;pressure_sealevel;temperature;humidity
6829;BME280;17930;48.592;8.868;2022-07-12T00:01:21;97407.63;;;14.53;100.00
6829;BME280;17930;48.592;8.868;2022-07-12T00:03:49;97413.53;;;14.40;100.00
6829;BME280;17930;48.592;8.868;2022-07-12T00:06:16;97408.28;;;14.40;100.00
6829;BME280;17930;48.592;8.868;2022-07-12T00:08:43;97416.50;;;14.34;100.00
6829;BME280;17930;48.592;8.868;2022-07-12T00:11:09;97417.09;;;14.26;100.00
6829;BME280;17930;48.592;8.868;2022-07-12T00:13:36;97422.97;;;14.18;100.00
6829;BME280;17930;48.592;8.868;2022-07-12T00:16:03;97430.88;;;14.13;100.00
6829;BME280;17930;48.592;8.868;2022-07-12T00:18:30;97421.69;;;14.16;100.00
6829;BME280;17930;48.592;8.868;2022-07-12T00:20:58;97423.16;;;14.27;100.00
6829;BME280;17930;48.592;8.868;2022-07-12T00:23:25;97426.38;;;14.19;100.00
6829;BME280;17930;48.592;8.868;2022-07-12T00:25:51;97425.59;;;14.18;100.00
6829;BME280;17930;48.592;8.868;2022-07-12T00:28:18;97425.25;;;14.25;100.00
6829;BME280;17930;48.592;8.868;2022-07-12T00:30:45;97420.09;;;14.15;100.00
6829;BME280;17930;48.592;8.868;2022-07-12T00:33:11;97425.91;;;14.12;100.00
6829;BME280;17930;48.592;8.868;2022-07-12T00:35:38;97422.44;;;14.16;100.00
6829;BME280;17930;48.592;8.868;2022-07-12T00:38:08;97426.69;;;14.12;100.00
6829;BME280;17930;48.592;8.868;2022-07-12T00:40:35;97416.53;;;14.06;100.00
6829;BME280;17930;48.592;8.868;2022-07-12T00:43:02;97422.84;;;14.00;100.00
6829;BME280;17930;48.592;8.868;2022-07-12T00:45:29;97422.84;;;14.00;100.00
6829;BME280;17930;48.592;8.868;2022-07-12T00:47:55;97429.19;;;13.94;100.00
6829;BME280;17930;48.592;8.868;2022-07-12T00:50:22;97425.47;;;14.00;100.00
6829;BME280;17930;48.592;8.868;2022-07-12T00:52:51;97420.25;;;13.95;100.00
6829;BME280;17930;48.592;8.868;2022-07-12T00:55:21;97434.06;;;14.10;100.00
6829;BME280;17930;48.592;8.868;2022-07-12T00:57:48;97427.50;;;14.08;100.00
6829;BME280;17930;48.592;8.868;2022-07-12T01:00:20;97428.59;;;14.02;100.00
6829;BME280;17930;48.592;8.868;2022-07-12T01:02:47;97424.94;;;13.98;100.00
6829;BME280;17930;48.592;8.868;2022-07-12T01:05:15;97432.88;;;13.93;100.00
6829;BME280;17930;48.592;8.868;2022-07-12T01:07:42;97434.06;;;14.05;100.00
6829;BME280;17930;48.592;8.868;2022-07-12T01:10:10;97432.47;;;14.09;100.00
6829;BME280;17930;48.592;8.868;2022-07-12T01:12:38;97433.91;;;13.97;100.00
6829;BME280;17930;48.592;8.868;2022-07-12T01:15:06;97438.88;;;13.98;100.00
6829;BME280;17930;48.592;8.868;2022-07-12T01:17:32;97438.69;;;13.90;100.00
6829;BME280;17930;48.592;8.868;2022-07-12T01:19:59;97445.47;;;13.91;100.00
6829;BME280;17930;48.592;8.868;2022-07-12T01:22:29;97447.06;;;13.87;100.00
6829;BME280;17930;48.592;8.868;2022-07-12T01:24:59;97446.91;;;13.79;100.00
6829;BME280;17930;48.592;8.868;2022-07-12T01:27:26;97448.78;;;13.73;100.00
6829;BME280;17930;48.592;8.868;2022-07-12T01:29:52;97454.78;;;13.74;100.00
6829;BME280;17930;48.592;8.868;2022-07-12T01:32:19;97458.72;;;13.76;100.00
6829;BME280;17930;48.592;8.868;2022-07-12T01:34:53;97459.75;;;13.80;100.00
6829;BME280;17930;48.592;8.868;2022-07-12T01:37:21;97454.78;;;13.79;100.00
6829;BME280;17930;48.592;8.868;2022-07-12T01:39:52;97456.56;;;13.83;100.00
6829;BME280;17930;48.592;8.868;2022-07-12T01:42:20;97449.69;;;13.87;100.00
6829;BME280;17930;48.592;8.868;2022-07-12T01:44:47;97453.94;;;13.83;100.00
6829;BME280;17930;48.592;8.868;2022-07-12T01:47:14;97452.88;;;13.84;100.00
6829;BME280;17930;48.592;8.868;2022-07-12T01:49:41;97446.56;;;13.90;100.00
6829;BME280;17930;48.592;8.868;2022-07-12T01:52:07;97447.59;;;13.89;100.00
6829;BME280;17930;48.592;8.868;2022-07-12T01:54:35;97456.66;;;13.73;100.00
6829;BME280;17930;48.592;8.868;2022-07-12T01:57:02;97448.22;;;13.76;100.00
6829;BME280;17930;48.592;8.868;2022-07-12T01:59:31;97443.91;;;13.57;100.00
6829;BME280;17930;48.592;8.868;2022-07-12T02:01:58;97443.69;;;13.53;100.00
6829;BME280;17930;48.592;8.868;2022-07-12T02:04:26;97446.78;;;13.60;100.00
6829;BME280;17930;48.592;8.868;2022-07-12T02:06:54;97454.56;;;13.70;100.00
6829;BME280;17930;48.592;8.868;2022-07-12T02:09:21;97453.78;;;13.70;100.00
6829;BME280;17930;48.592;8.868;2022-07-12T02:11:49;97449.56;;;13.74;100.00
6829;BME280;17930;48.592;8.868;2022-07-12T02:14:15;97452.44;;;13.72;100.00
6829;BME280;17930;48.592;8.868;2022-07-12T02:16:44;97448.84;;;13.63;100.00
6829;BME280;17930;48.592;8.868;2022-07-12T02:19:11;97452.03;;;13.60;100.00
6829;BME280;17930;48.592;8.868;2022-07-12T02:21:38;97437.88;;;13.56;100.00
6829;BME280;17930;48.592;8.868;2022-07-12T02:24:06;97447.28;;;13.62;100.00
6829;BME280;17930;48.592;8.868;2022-07-12T02:26:33;97437.00;;;13.66;100.00
6829;BME280;17930;48.592;8.868;2022-07-12T02:29:00;97437.34;;;13.59;100.00
6829;BME280;17930;48.592;8.868;2022-07-12T02:31:27;97439.44;;;13.57;100.00
6829;BME280;17930;48.592;8.868;2022-07-12T02:33:55;97436.25;;;13.65;100.00
6829;BME280;17930;48.592;8.868;2022-07-12T02:36:22;97439.34;;;13.72;100.00
6829;BME280;17930;48.592;8.868;2022-07-12T02:38:48;97430.91;;;13.75;100.00
6829;BME280;17930;48.592;8.868;2022-07-12T02:41:15;97434.00;;;13.82;100.00
6829;BME280;17930;48.592;8.868;2022-07-12T02:43:42;97437.69;;;13.81;100.00
6829;BME280;17930;48.592;8.868;2022-07-12T02:46:10;97430.00;;;13.89;100.00
6829;BME280;17930;48.592;8.868;2022-07-12T02:48:37;97429.72;;;13.91;100.00
6829;BME280;17930;48.592;8.868;2022-07-12T02:51:06;97434.50;;;13.84;100.00
6829;BME280;17930;48.592;8.868;2022-07-12T02:53:34;97436.09;;;13.85;100.00
6829;BME280;17930;48.592;8.868;2022-07-12T02:56:01;97433.75;;;13.83;100.00
6829;BME280;17930;48.592;8.868;2022-07-12T02:58:28;97432.97;;;13.83;100.00
6829;BME280;17930;48.592;8.868;2022-07-12T03:00:54;97430.84;;;13.85;100.00
6829;BME280;17930;48.592;8.868;2022-07-12T03:03:21;97430.00;;;13.89;100.00
6829;BME280;17930;48.592;8.868;2022-07-12T03:05:48;97428.72;;;13.87;100.00
6829;BME280;17930;48.592;8.868;2022-07-12T03:08:16;97431.88;;;13.84;100.00
6829;BME280;17930;48.592;8.868;2022-07-12T03:10:43;97427.72;;;13.83;100.00
6829;BME280;17930;48.592;8.868;2022-07-12T03:13:10;97427.38;;;13.89;100.00
6829;BME280;17930;48.592;8.868;2022-07-12T03:15:36;97434.00;;;13.82;100.00
6829;BME280;17930;48.592;8.868;2022-07-12T03:18:03;97438.28;;;13.73;100.00
6829;BME280;17930;48.592;8.868;2022-07-12T03:20:30;97442.97;;;13.76;100.00
6829;BME280;17930;48.592;8.868;2022-07-12T03:22:57;97440.63;;;13.75;100.00
6829;BME280;17930;48.592;8.868;2022-07-12T03:25:25;97445.88;;;13.75;100.00
6829;BME280;17930;48.592;8.868;2022-07-12T03:27:52;97442.72;;;13.73;100.00
6829;BME280;17930;48.592;8.868;2022-07-12T03:30:19;97446.09;;;13.78;100.00
6829;BME280;17930;48.592;8.868;2022-07-12T03:32:46;97440.31;;;13.81;100.00
6829;BME280;17930;48.592;8.868;2022-07-12T03:35:13;97440.22;;;13.91;100.00
6829;BME280;17930;48.592;8.868;2022-07-12T03:37:44;97444.91;;;13.94;100.00
6829;BME280;17930;48.592;8.868;2022-07-12T03:40:12;97444.91;;;13.94;100.00
6829;BME280;17930;48.592;8.868;2022-07-12T03:42:41;97453.81;;;13.98;100.00
6829;BME280;17930;48.592;8.868;2022-07-12T03:45:08;97448.50;;;14.08;100.00
6829;BME280;17930;48.592;8.868;2022-07-12T03:47:35;97450.00;;;14.14;100.00
6829;BME280;17930;48.592;8.868;2022-07-12T03:50:03;97446.03;;;14.21;100.00
6829;BME280;17930;48.592;8.868;2022-07-12T03:52:30;97447.56;;;14.22;100.00
6829;BME280;17930;48.592;8.868;2022-07-12T03:54:58;97445.97;;;14.26;100.00
6829;BME280;17930;48.592;8.868;2022-07-12T03:57:25;97448.88;;;14.25;100.00
6829;BME280;17930;48.592;8.868;2022-07-12T03:59:53;97463.69;;;14.11;100.00
6829;BME280;17930;48.592;8.868;2022-07-12T04:02:21;97457.19;;;14.08;100.00
6829;BME280;17930;48.592;8.868;2022-07-12T04:04:48;97456.69;;;14.01;100.00
6829;BME280;17930;48.592;8.868;2022-07-12T04:07:15;97469.88;;;13.91;100.00
6829;BME280;17930;48.592;8.868;2022-07-12T04:09:42;97465.97;;;13.84;100.00
6829;BME280;17930;48.592;8.868;2022-07-12T04:12:08;97473.34;;;13.82;100.00
6829;BME280;17930;48.592;8.868;2022-07-12T04:14:35;97477.38;;;14.08;100.00
6829;BME280;17930;48.592;8.868;2022-07-12T04:17:04;97478.44;;;14.02;100.00
6829;BME280;17930;48.592;8.868;2022-07-12T04:19:31;97471.63;;;14.01;100.00
6829;BME280;17930;48.592;8.868;2022-07-12T04:21:58;97475.88;;;13.97;100.00
6829;BME280;17930;48.592;8.868;2022-07-12T04:24:25;97477.03;;;13.81;100.00
6829;BME280;17930;48.592;8.868;2022-07-12T04:26:52;97468.56;;;13.89;100.00
6829;BME280;17930;48.592;8.868;2022-07-12T04:29:19;97472.88;;;13.75;100.00
6829;BME280;17930;48.592;8.868;2022-07-12T04:31:46;97472.88;;;13.75;100.00
6829;BME280;17930;48.592;8.868;2022-07-12T04:34:14;97479.78;;;13.61;100.00
6829;BME280;17930;48.592;8.868;2022-07-12T04:36:42;97486.88;;;13.56;100.00
6829;BME280;17930;48.592;8.868;2022-07-12T04:39:09;97482.25;;;13.81;100.00
6829;BME280;17930;48.592;8.868;2022-07-12T04:41:36;97476.00;;;13.77;100.00
6829;BME280;17930;48.592;8.868;2022-07-12T04:44:03;97484.88;;;13.86;100.00
6829;BME280;17930;48.592;8.868;2022-07-12T04:46:30;97478.13;;;13.75;100.00
6829;BME280;17930;48.592;8.868;2022-07-12T04:48:57;97480.25;;;13.68;100.00
6829;BME280;17930;48.592;8.868;2022-07-12T04:51:25;97483.94;;;13.67;100.00
6829;BME280;17930;48.592;8.868;2022-07-12T04:53:52;97489.72;;;13.64;100.00
6829;BME280;17930;48.592;8.868;2022-07-12T04:56:19;97477.69;;;13.63;100.00
6829;BME280;17930;48.592;8.868;2022-07-12T04:58:45;97478.44;;;13.69;100.00
6829;BME280;17930;48.592;8.868;2022-07-12T05:01:12;97480.13;;;13.88;100.00
6829;BME280;17930;48.592;8.868;2022-07-12T05:03:39;97477.97;;;13.95;100.00
6829;BME280;17930;48.592;8.868;2022-07-12T05:06:05;97481.50;;;14.14;100.00
6829;BME280;17930;48.592;8.868;2022-07-12T05:08:34;97485.03;;;14.33;100.00
6829;BME280;17930;48.592;8.868;2022-07-12T05:11:00;97483.34;;;14.41;100.00
6829;BME280;17930;48.592;8.868;2022-07-12T05:13:27;97481.09;;;14.58;100.00
6829;BME280;17930;48.592;8.868;2022-07-12T05:15:54;97486.72;;;14.70;100.00
6829;BME280;17930;48.592;8.868;2022-07-12T05:18:20;97488.31;;;14.71;100.00
6829;BME280;17930;48.592;8.868;2022-07-12T05:20:47;97485.19;;;14.69;100.00
6829;BME280;17930;48.592;8.868;2022-07-12T05:23:14;97490.44;;;14.69;100.00
6829;BME280;17930;48.592;8.868;2022-07-12T05:25:41;97489.41;;;14.88;100.00
6829;BME280;17930;48.592;8.868;2022-07-12T05:28:08;97488.72;;;15.01;100.00
6829;BME280;17930;48.592;8.868;2022-07-12T05:30:35;97488.25;;;15.23;100.00
6829;BME280;17930;48.592;8.868;2022-07-12T05:33:01;97484.94;;;15.36;100.00
6829;BME280;17930;48.592;8.868;2022-07-12T05:35:28;97489.47;;;15.48;100.00
6829;BME280;17930;48.592;8.868;2022-07-12T05:37:55;97492.41;;;15.65;100.00
6829;BME280;17930;48.592;8.868;2022-07-12T05:40:21;97493.00;;;15.94;100.00
6829;BME280;17930;48.592;8.868;2022-07-12T05:42:49;97494.59;;;15.95;100.00
6829;BME280;17930;48.592;8.868;2022-07-12T05:45:16;97496.69;;;15.93;100.00
6829;BME280;17930;48.592;8.868;2022-07-12T05:47:43;97495.34;;;15.95;100.00
6829;BME280;17930;48.592;8.868;2022-07-12T05:50:10;97509.63;;;16.08;100.00
6829;BME280;17930;48.592;8.868;2022-07-12T05:52:37;97510.94;;;16.10;100.00
6829;BME280;17930;48.592;8.868;2022-07-12T05:55:21;97517.09;;;16.19;100.00
6829;BME280;17930;48.592;8.868;2022-07-12T05:57:49;97515.59;;;16.32;100.00
6829;BME280;17930;48.592;8.868;2022-07-12T06:00:16;97507.84;;;16.53;100.00
6829;BME280;17930;48.592;8.868;2022-07-12T06:02:43;97509.63;;;16.85;100.00
6829;BME280;17930;48.592;8.868;2022-07-12T06:05:09;97507.88;;;17.07;100.00
6829;BME280;17930;48.592;8.868;2022-07-12T06:07:36;97508.28;;;17.41;100.00
6829;BME280;17930;48.592;8.868;2022-07-12T06:10:03;97512.84;;;17.62;100.00
6829;BME280;17930;48.592;8.868;2022-07-12T06:12:30;97510.72;;;17.86;100.00
6829;BME280;17930;48.592;8.868;2022-07-12T06:14:58;97512.59;;;18.07;100.00
6829;BME280;17930;48.592;8.868;2022-07-12T06:17:24;97511.69;;;17.90;100.00
6829;BME280;17930;48.592;8.868;2022-07-12T06:19:51;97512.59;;;18.07;100.00
6829;BME280;17930;48.592;8.868;2022-07-12T06:22:18;97517.41;;;18.27;100.00
6829;BME280;17930;48.592;8.868;2022-07-12T06:24:46;97514.34;;;18.55;100.00
6829;BME280;17930;48.592;8.868;2022-07-12T06:27:13;97525.16;;;18.75;100.00
6829;BME280;17930;48.592;8.868;2022-07-12T06:29:39;97521.78;;;18.83;100.00
6829;BME280;17930;48.592;8.868;2022-07-12T06:32:08;97522.75;;;18.87;100.00
6829;BME280;17930;48.592;8.868;2022-07-12T06:34:36;97528.91;;;19.04;100.00
6829;BME280;17930;48.592;8.868;2022-07-12T06:37:03;97532.97;;;19.10;100.00
6829;BME280;17930;48.592;8.868;2022-07-12T06:39:33;97517.81;;;19.41;100.00
6829;BME280;17930;48.592;8.868;2022-07-12T06:42:00;97521.00;;;19.94;100.00
6829;BME280;17930;48.592;8.868;2022-07-12T06:44:29;97519.28;;;20.40;100.00
6829;BME280;17930;48.592;8.868;2022-07-12T06:46:55;97516.53;;;20.65;100.00
6829;BME280;17930;48.592;8.868;2022-07-12T06:49:23;97521.97;;;20.85;100.00
6829;BME280;17930;48.592;8.868;2022-07-12T06:51:51;97521.06;;;21.56;100.00
6829;BME280;17930;48.592;8.868;2022-07-12T06:54:17;97519.69;;;21.41;100.00
6829;BME280;17930;48.592;8.868;2022-07-12T06:56:44;97512.25;;;21.84;100.00
6829;BME280;17930;48.592;8.868;2022-07-12T06:59:11;97516.59;;;21.88;100.00
6829;BME280;17930;48.592;8.868;2022-07-12T07:01:37;97515.53;;;21.81;100.00
6829;BME280;17930;48.592;8.868;2022-07-12T07:04:05;97517.66;;;21.38;100.00
6829;BME280;17930;48.592;8.868;2022-07-12T07:06:33;97517.16;;;21.73;100.00
6829;BME280;17930;48.592;8.868;2022-07-12T07:09:00;97519.22;;;21.68;100.00
6829;BME280;17930;48.592;8.868;2022-07-12T07:11:27;97524.38;;;21.44;100.00
6829;BME280;17930;48.592;8.868;2022-07-12T07:13:53;97525.16;;;21.94;100.00
6829;BME280;17930;48.592;8.868;2022-07-12T07:16:20;97521.13;;;22.08;100.00
6829;BME280;17930;48.592;8.868;2022-07-12T07:18:49;97528.19;;;22.57;100.00
6829;BME280;17930;48.592;8.868;2022-07-12T07:21:16;97525.69;;;23.04;100.00
6829;BME280;17930;48.592;8.868;2022-07-12T07:23:44;97533.19;;;23.62;100.00
6829;BME280;17930;48.592;8.868;2022-07-12T07:26:10;97531.56;;;24.47;100.00
6829;BME280;17930;48.592;8.868;2022-07-12T07:28:37;97528.19;;;24.93;100.00
6829;BME280;17930;48.592;8.868;2022-07-12T07:31:18;97522.91;;;25.58;100.00
6829;BME280;17930;48.592;8.868;2022-07-12T07:33:45;97521.34;;;26.25;100.00
6829;BME280;17930;48.592;8.868;2022-07-12T07:36:12;97524.28;;;26.58;100.00
6829;BME280;17930;48.592;8.868;2022-07-12T07:38:39;97520.75;;;26.73;100.00
6829;BME280;17930;48.592;8.868;2022-07-12T07:41:07;97529.56;;;26.17;100.00
6829;BME280;17930;48.592;8.868;2022-07-12T07:43:34;97524.16;;;26.92;100.00
6829;BME280;17930;48.592;8.868;2022-07-12T07:46:01;97520.06;;;27.46;100.00
6829;BME280;17930;48.592;8.868;2022-07-12T07:48:28;97516.69;;;27.49;96.81
6829;BME280;17930;48.592;8.868;2022-07-12T07:50:54;97516.47;;;26.49;100.00
6829;BME280;17930;48.592;8.868;2022-07-12T07:53:23;97517.22;;;27.58;100.00
6829;BME280;17930;48.592;8.868;2022-07-12T07:55:50;97511.13;;;28.16;89.66
6829;BME280;17930;48.592;8.868;2022-07-12T07:58:18;97517.53;;;28.70;85.49
6829;BME280;17930;48.592;8.868;2022-07-12T08:00:47;97515.66;;;28.41;84.24
6829;BME280;17930;48.592;8.868;2022-07-12T08:03:13;97517.78;;;28.25;83.46
6829;BME280;17930;48.592;8.868;2022-07-12T08:05:40;97517.91;;;28.36;81.64
6829;BME280;17930;48.592;8.868;2022-07-12T08:08:07;97513.94;;;28.26;81.86
6829;BME280;17930;48.592;8.868;2022-07-12T08:10:33;97522.72;;;28.56;79.78
6829;BME280;17930;48.592;8.868;2022-07-12T08:13:00;97517.88;;;29.04;78.42
6829;BME280;17930;48.592;8.868;2022-07-12T08:15:28;97513.03;;;28.81;75.65
6829;BME280;17930;48.592;8.868;2022-07-12T08:17:55;97512.06;;;29.49;76.66
6829;BME280;17930;48.592;8.868;2022-07-12T08:20:22;97511.34;;;30.16;74.00
6829;BME280;17930;48.592;8.868;2022-07-12T08:22:49;97498.00;;;30.61;71.08
6829;BME280;17930;48.592;8.868;2022-07-12T08:25:15;97505.84;;;31.32;66.78
6829;BME280;17930;48.592;8.868;2022-07-12T08:27:42;97510.03;;;31.71;61.75
6829;BME280;17930;48.592;8.868;2022-07-12T08:30:09;97503.09;;;31.70;61.20
6829;BME280;17930;48.592;8.868;2022-07-12T08:32:42;97508.78;;;30.47;61.83
6829;BME280;17930;48.592;8.868;2022-07-12T08:35:09;97498.81;;;30.61;61.83
6829;BME280;17930;48.592;8.868;2022-07-12T08:37:36;97501.91;;;31.78;62.12
6829;BME280;17930;48.592;8.868;2022-07-12T08:40:04;97502.66;;;31.89;61.01
6829;BME280;17930;48.592;8.868;2022-07-12T08:42:31;97501.09;;;32.80;59.82
6829;BME280;17930;48.592;8.868;2022-07-12T08:44:58;97499.69;;;33.19;56.13
6829;BME280;17930;48.592;8.868;2022-07-12T08:47:25;97502.44;;;33.12;55.99
6829;BME280;17930;48.592;8.868;2022-07-12T08:50:13;97507.78;;;33.22;56.06
6829;BME280;17930;48.592;8.868;2022-07-12T08:52:43;97517.31;;;32.02;57.34
6829;BME280;17930;48.592;8.868;2022-07-12T08:55:24;97524.56;;;32.25;56.27
6829;BME280;17930;48.592;8.868;2022-07-12T08:57:52;97516.59;;;31.14;56.74
6829;BME280;17930;48.592;8.868;2022-07-12T09:00:20;97520.66;;;30.36;60.23
6829;BME280;17930;48.592;8.868;2022-07-12T09:02:48;97534.78;;;29.08;62.46
6829;BME280;17930;48.592;8.868;2022-07-12T09:05:18;97531.72;;;28.38;64.56
6829;BME280;17930;48.592;8.868;2022-07-12T09:07:46;97530.38;;;28.54;66.92
6829;BME280;17930;48.592;8.868;2022-07-12T09:10:13;97535.91;;;28.68;67.79
6829;BME280;17930;48.592;8.868;2022-07-12T09:12:42;97538.47;;;28.57;65.59
6829;BME280;17930;48.592;8.868;2022-07-12T09:15:16;97540.03;;;28.26;64.99
6829;BME280;17930;48.592;8.868;2022-07-12T09:17:55;97526.94;;;28.90;65.67
6829;BME280;17930;48.592;8.868;2022-07-12T09:20:25;97524.75;;;30.05;61.22
6829;BME280;17930;48.592;8.868;2022-07-12T09:22:54;97521.25;;;29.41;63.38
6829;BME280;17930;48.592;8.868;2022-07-12T09:25:21;97516.69;;;29.48;61.43
6829;BME280;17930;48.592;8.868;2022-07-12T09:27:51;97523.31;;;30.32;61.87
6829;BME280;17930;48.592;8.868;2022-07-12T09:30:19;97505.81;;;31.14;56.35
6829;BME280;17930;48.592;8.868;2022-07-12T09:32:50;97512.84;;;30.06;58.14
6829;BME280;17930;48.592;8.868;2022-07-12T09:35:36;97524.22;;;29.26;63.18
6829;BME280;17930;48.592;8.868;2022-07-12T09:38:20;97533.16;;;28.28;62.37
6829;BME280;17930;48.592;8.868;2022-07-12T09:40:47;97525.63;;;29.16;63.41
6829;BME280;17930;48.592;8.868;2022-07-12T09:43:15;97518.34;;;29.67;61.84
6829;BME280;17930;48.592;8.868;2022-07-12T09:45:43;97521.00;;;29.60;61.85
6829;BME280;17930;48.592;8.868;2022-07-12T09:48:11;97518.91;;;31.16;58.14
6829;BME280;17930;48.592;8.868;2022-07-12T09:50:40;97520.41;;;30.82;58.38
6829;BME280;17930;48.592;8.868;2022-07-12T09:53:09;97525.72;;;30.51;59.20
6829;BME280;17930;48.592;8.868;2022-07-12T09:55:37;97522.78;;;31.32;57.40
6829;BME280;17930;48.592;8.868;2022-07-12T09:58:07;97528.94;;;31.64;56.29
6829;BME280;17930;48.592;8.868;2022-07-12T10:00:35;97528.06;;;32.15;54.71
6829;BME280;17930;48.592;8.868;2022-07-12T10:03:03;97522.16;;;32.48;56.05
6829;BME280;17930;48.592;8.868;2022-07-12T10:05:30;97527.03;;;31.12;55.40
6829;BME280;17930;48.592;8.868;2022-07-12T10:07:58;97526.63;;;30.90;55.81
6829;BME280;17930;48.592;8.868;2022-07-12T10:10:27;97528.81;;;32.26;52.83
6829;BME280;17930;48.592;8.868;2022-07-12T10:12:54;97521.47;;;33.02;51.18
6829;BME280;17930;48.592;8.868;2022-07-12T10:15:25;97520.16;;;33.67;49.41
6829;BME280;17930;48.592;8.868;2022-07-12T10:17:54;97527.34;;;33.40;50.08
6829;BME280;17930;48.592;8.868;2022-07-12T10:20:25;97526.91;;;32.98;50.76
6829;BME280;17930;48.592;8.868;2022-07-12T10:22:53;97521.91;;;33.47;49.43
6829;BME280;17930;48.592;8.868;2022-07-12T10:25:39;97519.50;;;34.59;47.83
6829;BME280;17930;48.592;8.868;2022-07-12T10:28:05;97530.44;;;32.03;49.37
6829;BME280;17930;48.592;8.868;2022-07-12T10:30:41;97526.63;;;31.31;50.82
6829;BME280;17930;48.592;8.868;2022-07-12T10:33:15;97521.41;;;32.41;50.47
6829;BME280;17930;48.592;8.868;2022-07-12T10:35:57;97518.72;;;33.59;47.63
6829;BME280;17930;48.592;8.868;2022-07-12T10:38:24;97516.28;;;34.38;45.05
6829;BME280;17930;48.592;8.868;2022-07-12T10:40:53;97508.25;;;34.61;48.49
6829;BME280;17930;48.592;8.868;2022-07-12T10:43:27;97504.59;;;34.74;46.49
6829;BME280;17930;48.592;8.868;2022-07-12T10:46:21;97502.06;;;35.13;45.84
6829;BME280;17930;48.592;8.868;2022-07-12T10:48:49;97502.06;;;35.81;44.08
6829;BME280;17930;48.592;8.868;2022-07-12T10:51:17;97494.75;;;34.83;46.63
6829;BME280;17930;48.592;8.868;2022-07-12T10:53:45;97485.66;;;35.65;45.63
6829;BME280;17930;48.592;8.868;2022-07-12T10:56:22;97494.19;;;35.44;45.34
6829;BME280;17930;48.592;8.868;2022-07-12T10:58:52;97501.25;;;35.38;46.39
6829;BME280;17930;48.592;8.868;2022-07-12T11:01:22;97506.06;;;35.96;43.09
6829;BME280;17930;48.592;8.868;2022-07-12T11:03:51;97498.63;;;36.54;42.05
6829;BME280;17930;48.592;8.868;2022-07-12T11:06:20;97493.66;;;35.95;42.53
6829;BME280;17930;48.592;8.868;2022-07-12T11:08:55;97491.59;;;37.08;42.15
6829;BME280;17930;48.592;8.868;2022-07-12T11:11:25;97495.72;;;36.45;41.51
6829;BME280;17930;48.592;8.868;2022-07-12T11:13:52;97511.50;;;35.96;42.06
6829;BME280;17930;48.592;8.868;2022-07-12T11:16:20;97490.19;;;36.14;41.64
6829;BME280;17930;48.592;8.868;2022-07-12T11:18:47;97487.16;;;36.98;42.33
6829;BME280;17930;48.592;8.868;2022-07-12T11:21:14;97498.38;;;34.47;42.75
6829;BME280;17930;48.592;8.868;2022-07-12T11:23:41;97491.09;;;35.65;44.43
6829;BME280;17930;48.592;8.868;2022-07-12T11:26:11;97483.47;;;35.99;40.79
6829;BME280;17930;48.592;8.868;2022-07-12T11:28:40;97482.66;;;35.60;41.67
6829;BME280;17930;48.592;8.868;2022-07-12T11:31:09;97490.03;;;36.21;42.38
6829;BME280;17930;48.592;8.868;2022-07-12T11:33:38;97496.72;;;36.16;40.84
6829;BME280;17930;48.592;8.868;2022-07-12T11:36:07;97481.63;;;37.17;40.15
6829;BME280;17930;48.592;8.868;2022-07-12T11:38:34;97478.50;;;37.19;39.08
6829;BME280;17930;48.592;8.868;2022-07-12T11:41:03;97481.38;;;36.26;39.11
6829;BME280;17930;48.592;8.868;2022-07-12T11:43:31;97477.06;;;36.09;40.46
6829;BME280;17930;48.592;8.868;2022-07-12T11:46:00;97477.78;;;35.51;39.99
6829;BME280;17930;48.592;8.868;2022-07-12T11:48:27;97474.09;;;36.58;40.06
6829;BME280;17930;48.592;8.868;2022-07-12T11:50:55;97477.06;;;36.09;41.04
6829;BME280;17930;48.592;8.868;2022-07-12T11:53:23;97484.00;;;35.71;39.99
6829;BME280;17930;48.592;8.868;2022-07-12T11:55:51;97483.00;;;36.58;40.36
6829;BME280;17930;48.592;8.868;2022-07-12T11:58:33;97483.84;;;36.55;39.49
6829;BME280;17930;48.592;8.868;2022-07-12T12:01:09;97481.38;;;36.80;39.62
6829;BME280;17930;48.592;8.868;2022-07-12T12:03:42;97469.03;;;36.02;38.63
6829;BME280;17930;48.592;8.868;2022-07-12T12:06:09;97466.59;;;36.97;38.63
6829;BME280;17930;48.592;8.868;2022-07-12T12:08:36;97473.91;;;37.16;38.37
6829;BME280;17930;48.592;8.868;2022-07-12T12:11:03;97464.47;;;38.08;39.07
6829;BME280;17930;48.592;8.868;2022-07-12T12:13:37;97472.53;;;36.92;37.83
6829;BME280;17930;48.592;8.868;2022-07-12T12:16:05;97466.84;;;38.06;38.25
6829;BME280;17930;48.592;8.868;2022-07-12T12:18:34;97475.75;;;36.36;37.22
6829;BME280;17930;48.592;8.868;2022-07-12T12:21:02;97462.31;;;38.41;36.90
6829;BME280;17930;48.592;8.868;2022-07-12T12:23:29;97471.69;;;37.42;35.88
6829;BME280;17930;48.592;8.868;2022-07-12T12:26:12;97465.06;;;38.00;35.33
6829;BME280;17930;48.592;8.868;2022-07-12T12:28:41;97454.50;;;37.30;36.45
6829;BME280;17930;48.592;8.868;2022-07-12T12:31:10;97456.50;;;37.86;37.08
6829;BME280;17930;48.592;8.868;2022-07-12T12:33:39;97441.28;;;38.00;36.41
6829;BME280;17930;48.592;8.868;2022-07-12T12:36:20;97442.75;;;37.17;37.38
6829;BME280;17930;48.592;8.868;2022-07-12T12:38:48;97432.28;;;38.16;36.29
6829;BME280;17930;48.592;8.868;2022-07-12T12:41:16;97449.28;;;35.59;38.07
6829;BME280;17930;48.592;8.868;2022-07-12T12:43:43;97441.84;;;35.83;37.87
6829;BME280;17930;48.592;8.868;2022-07-12T12:46:12;97440.44;;;35.32;38.93
6829;BME280;17930;48.592;8.868;2022-07-12T12:48:46;97435.16;;;36.77;38.21
6829;BME280;17930;48.592;8.868;2022-07-12T12:51:13;97438.31;;;37.39;36.59
6829;BME280;17930;48.592;8.868;2022-07-12T12:53:41;97430.66;;;36.86;36.92
6829;BME280;17930;48.592;8.868;2022-07-12T12:56:09;97440.09;;;36.66;39.52
6829;BME280;17930;48.592;8.868;2022-07-12T12:58:37;97436.50;;;37.16;36.37
6829;BME280;17930;48.592;8.868;2022-07-12T13:01:05;97429.66;;;37.72;38.06
6829;BME280;17930;48.592;8.868;2022-07-12T13:03:33;97430.00;;;36.31;37.68
6829;BME280;17930;48.592;8.868;2022-07-12T13:06:00;97428.81;;;36.13;38.09
6829;BME280;17930;48.592;8.868;2022-07-12T13:08:27;97425.41;;;36.79;38.09
6829;BME280;17930;48.592;8.868;2022-07-12T13:10:54;97425.78;;;36.62;38.00